createdAt,value
2022-12-11T00:00:13.893Z,86.47
2022-12-11T00:01:13.919Z,86.56
2022-12-11T00:02:13.906Z,86.56
2022-12-11T00:03:16.159Z,86.41
2022-12-11T00:04:13.860Z,86.50
2022-12-11T00:05:13.870Z,86.49
2022-12-11T00:06:13.872Z,86.45
2022-12-11T00:07:13.831Z,86.58
2022-12-11T00:08:13.990Z,86.75
2022-12-11T00:09:13.856Z,86.96
2022-12-11T00:10:13.833Z,87.13
2022-12-11T00:11:13.807Z,87.31
2022-12-11T00:12:13.778Z,87.54
2022-12-11T00:13:13.780Z,87.85
2022-12-11T00:14:13.792Z,88.05
2022-12-11T00:15:14.005Z,88.21
2022-12-11T00:16:13.889Z,88.27
2022-12-11T00:17:13.756Z,88.21
2022-12-11T00:18:13.745Z,88.04
2022-12-11T00:19:13.721Z,87.89
2022-12-11T00:20:13.739Z,87.73
2022-12-11T00:21:13.725Z,87.68
2022-12-11T00:22:13.708Z,87.58
2022-12-11T00:23:13.743Z,87.42
2022-12-11T00:24:13.693Z,86.94
2022-12-11T00:25:13.791Z,86.62
2022-12-11T00:26:13.664Z,86.48
2022-12-11T00:27:13.667Z,86.43
2022-12-11T00:28:14.266Z,86.43
2022-12-11T00:29:13.648Z,86.22
2022-12-11T00:30:13.611Z,86.03
2022-12-11T00:31:13.640Z,85.74
2022-12-11T00:32:13.667Z,85.59
2022-12-11T00:33:13.606Z,85.56
2022-12-11T00:34:13.578Z,85.59
2022-12-11T00:35:13.882Z,85.61
2022-12-11T00:36:13.579Z,85.64
2022-12-11T00:37:13.593Z,85.62
2022-12-11T00:38:13.574Z,85.62
2022-12-11T00:39:13.542Z,85.57
2022-12-11T00:40:13.518Z,85.56
2022-12-11T00:41:13.520Z,85.50
2022-12-11T00:42:13.512Z,85.43
2022-12-11T00:43:13.569Z,85.39
2022-12-11T00:44:13.514Z,85.43
2022-12-11T00:45:13.574Z,85.46
2022-12-11T00:46:13.545Z,85.53
2022-12-11T00:47:13.465Z,85.59
2022-12-11T00:48:13.474Z,85.60
2022-12-11T00:49:13.478Z,85.64
2022-12-11T00:50:13.431Z,85.70
2022-12-11T00:51:13.439Z,85.74
2022-12-11T00:52:13.412Z,85.79
2022-12-11T00:53:13.403Z,85.89
2022-12-11T00:54:13.444Z,85.95
2022-12-11T00:55:13.413Z,85.98
2022-12-11T00:56:13.373Z,85.97
2022-12-11T00:57:13.367Z,85.98
2022-12-11T00:58:13.391Z,86.00
2022-12-11T00:59:13.344Z,86.04
2022-12-11T01:00:13.424Z,85.98
2022-12-11T01:01:13.399Z,86.01
2022-12-11T01:02:13.355Z,86.05
2022-12-11T01:03:13.393Z,86.06
2022-12-11T01:04:13.306Z,85.98
2022-12-11T01:05:13.407Z,85.97
2022-12-11T01:06:13.314Z,85.88
2022-12-11T01:07:13.282Z,85.79
2022-12-11T01:08:13.348Z,85.75
2022-12-11T01:09:13.260Z,85.87
2022-12-11T01:10:13.279Z,85.94
2022-12-11T01:11:13.273Z,85.95
2022-12-11T01:12:13.226Z,85.94
2022-12-11T01:13:13.217Z,85.98
2022-12-11T01:14:13.216Z,86.16
2022-12-11T01:15:13.432Z,86.17
2022-12-11T01:16:13.256Z,86.01
2022-12-11T01:17:13.184Z,85.71
2022-12-11T01:18:13.194Z,85.53
2022-12-11T01:19:13.168Z,85.67
2022-12-11T01:20:13.179Z,86.05
2022-12-11T01:21:13.144Z,86.21
2022-12-11T01:22:13.134Z,86.20
2022-12-11T01:23:13.208Z,86.06
2022-12-11T01:24:13.131Z,86.06
2022-12-11T01:25:13.207Z,86.17
2022-12-11T01:26:13.124Z,86.33
2022-12-11T01:27:13.096Z,86.50
2022-12-11T01:28:13.110Z,86.60
2022-12-11T01:29:13.076Z,86.77
2022-12-11T01:30:13.088Z,86.93
2022-12-11T01:31:13.083Z,86.95
2022-12-11T01:32:13.053Z,86.93
2022-12-11T01:33:13.101Z,86.97
2022-12-11T01:34:13.026Z,87.05
2022-12-11T01:35:13.357Z,87.11
2022-12-11T01:36:13.020Z,87.07
2022-12-11T01:37:13.036Z,87.01
2022-12-11T01:38:12.994Z,86.97
2022-12-11T01:39:12.984Z,86.95
2022-12-11T01:40:12.971Z,86.94
2022-12-11T01:41:12.996Z,86.93
2022-12-11T01:42:12.956Z,86.94
2022-12-11T01:43:12.939Z,86.99
2022-12-11T01:44:12.935Z,87.02
2022-12-11T01:45:13.082Z,87.02
2022-12-11T01:46:13.055Z,87.07
2022-12-11T01:47:12.930Z,87.12
2022-12-11T01:48:12.897Z,87.19
2022-12-11T01:49:12.944Z,87.20
2022-12-11T01:50:12.876Z,87.15
2022-12-11T01:51:12.896Z,87.12
2022-12-11T01:52:12.859Z,87.06
2022-12-11T01:53:12.860Z,86.99
2022-12-11T01:54:12.839Z,86.91
2022-12-11T01:55:12.958Z,86.91
2022-12-11T01:56:12.855Z,86.91
2022-12-11T01:57:12.818Z,86.91
2022-12-11T01:58:12.818Z,86.91
2022-12-11T01:59:12.798Z,86.91
2022-12-11T02:00:12.793Z,86.90
2022-12-11T02:02:30.508Z,87.16
2022-12-11T02:03:31.385Z,87.09
2022-12-11T02:04:31.372Z,87.09
2022-12-11T02:05:31.358Z,87.04
2022-12-11T02:06:31.365Z,87.11
2022-12-11T02:07:31.368Z,86.99
2022-12-11T02:08:31.373Z,86.87
2022-12-11T02:09:31.326Z,86.81
2022-12-11T02:10:31.311Z,86.73
2022-12-11T02:11:31.305Z,86.72
2022-12-11T02:12:31.301Z,86.58
2022-12-11T02:13:31.289Z,86.48
2022-12-11T02:14:31.269Z,86.29
2022-12-11T02:15:31.296Z,86.19
2022-12-11T02:16:31.340Z,86.15
2022-12-11T02:17:31.258Z,86.13
2022-12-11T02:18:31.242Z,85.99
2022-12-11T02:19:31.225Z,85.94
2022-12-11T02:20:31.230Z,86.00
2022-12-11T02:21:31.215Z,85.88
2022-12-11T02:22:31.243Z,85.81
2022-12-11T02:23:31.195Z,85.75
2022-12-11T02:24:31.178Z,85.68
2022-12-11T02:25:31.175Z,85.68
2022-12-11T02:26:31.179Z,85.61
2022-12-11T02:27:31.172Z,85.55
2022-12-11T02:28:31.147Z,85.49
2022-12-11T02:29:31.168Z,85.49
2022-12-11T02:30:31.123Z,85.49
2022-12-11T02:31:31.198Z,85.46
2022-12-11T02:32:31.120Z,85.45
2022-12-11T02:33:31.096Z,85.46
2022-12-11T02:34:31.085Z,85.43
2022-12-11T02:35:31.083Z,85.42
2022-12-11T02:36:31.066Z,85.38
2022-12-11T02:37:31.074Z,85.51
2022-12-11T02:38:31.046Z,85.83
2022-12-11T02:39:31.060Z,85.75
2022-12-11T02:40:31.073Z,85.74
2022-12-11T02:41:31.031Z,85.76
2022-12-11T02:42:31.047Z,85.85
2022-12-11T02:43:31.001Z,85.89
2022-12-11T02:44:31.000Z,85.85
2022-12-11T02:45:31.021Z,85.71
2022-12-11T02:46:31.019Z,85.67
2022-12-11T02:47:31.002Z,85.62
2022-12-11T02:48:30.985Z,85.69
2022-12-11T02:49:30.950Z,85.49
2022-12-11T02:50:30.938Z,85.46
2022-12-11T02:51:30.955Z,85.49
2022-12-11T02:52:30.937Z,85.45
2022-12-11T02:53:30.944Z,85.30
2022-12-11T02:54:30.909Z,85.28
2022-12-11T02:55:30.901Z,85.24
2022-12-11T02:56:30.882Z,85.34
2022-12-11T02:57:30.882Z,85.04
2022-12-11T02:58:30.860Z,84.98
2022-12-11T02:59:30.870Z,84.99
2022-12-11T03:00:30.857Z,85.32
2022-12-11T03:01:30.906Z,85.30
2022-12-11T03:02:30.917Z,85.13
2022-12-11T03:03:30.833Z,85.06
2022-12-11T03:04:30.833Z,84.97
2022-12-11T03:05:30.799Z,84.99
2022-12-11T03:06:30.798Z,85.07
2022-12-11T03:07:30.816Z,85.18
2022-12-11T03:08:30.840Z,85.26
2022-12-11T03:09:30.761Z,85.27
2022-12-11T03:10:30.775Z,85.35
2022-12-11T03:11:30.743Z,85.53
2022-12-11T03:12:30.734Z,85.65
2022-12-11T03:13:30.804Z,85.61
2022-12-11T03:14:30.735Z,85.63
2022-12-11T03:15:30.706Z,85.63
2022-12-11T03:16:30.771Z,85.69
2022-12-11T03:17:30.706Z,85.78
2022-12-11T03:18:30.694Z,85.91
2022-12-11T03:19:30.669Z,85.95
2022-12-11T03:20:30.673Z,85.99
2022-12-11T03:21:30.657Z,86.02
2022-12-11T03:22:30.638Z,86.15
2022-12-11T03:23:30.657Z,86.26
2022-12-11T03:24:30.621Z,86.32
2022-12-11T03:25:30.622Z,86.37
2022-12-11T03:26:30.607Z,86.40
2022-12-11T03:27:30.615Z,86.39
2022-12-11T03:28:30.581Z,86.41
2022-12-11T03:29:30.591Z,86.45
2022-12-11T03:30:30.681Z,86.53
2022-12-11T03:31:30.624Z,86.44
2022-12-11T03:32:30.577Z,86.39
2022-12-11T03:33:30.565Z,86.32
2022-12-11T03:34:30.524Z,86.32
2022-12-11T03:35:30.548Z,86.18
2022-12-11T03:36:30.505Z,85.98
2022-12-11T03:37:30.546Z,85.72
2022-12-11T03:38:30.503Z,85.64
2022-12-11T03:39:30.512Z,85.56
2022-12-11T03:40:30.476Z,85.47
2022-12-11T03:41:30.482Z,85.43
2022-12-11T03:42:30.451Z,85.33
2022-12-11T03:43:30.458Z,85.40
2022-12-11T03:44:30.459Z,85.33
2022-12-11T03:45:30.455Z,85.26
2022-12-11T03:46:30.468Z,84.95
2022-12-11T03:47:30.418Z,85.09
2022-12-11T03:48:30.427Z,84.73
2022-12-11T03:49:30.436Z,84.64
2022-12-11T03:50:30.385Z,84.67
2022-12-11T03:51:30.373Z,84.65
2022-12-11T03:52:30.362Z,84.69
2022-12-11T03:53:30.360Z,84.76
2022-12-11T03:54:30.345Z,84.85
2022-12-11T03:55:30.352Z,84.97
2022-12-11T03:56:30.385Z,85.02
2022-12-11T03:57:30.322Z,85.09
2022-12-11T03:58:30.331Z,85.24
2022-12-11T03:59:30.293Z,85.37
2022-12-11T04:00:30.291Z,85.22
2022-12-11T04:01:30.367Z,85.15
2022-12-11T04:02:30.265Z,85.14
2022-12-11T04:03:30.269Z,85.12
2022-12-11T04:04:30.359Z,85.13
2022-12-11T04:05:30.260Z,84.84
2022-12-11T04:06:30.258Z,84.67
2022-12-11T04:07:30.255Z,84.72
2022-12-11T04:08:30.258Z,84.75
2022-12-11T04:09:30.219Z,85.04
2022-12-11T04:10:30.228Z,84.98
2022-12-11T04:11:30.214Z,84.98
2022-12-11T04:12:30.185Z,84.83
2022-12-11T04:13:30.221Z,84.68
2022-12-11T04:14:30.185Z,84.76
2022-12-11T04:15:30.145Z,84.98
2022-12-11T04:16:30.193Z,84.97
2022-12-11T04:17:30.136Z,85.05
2022-12-11T04:18:30.145Z,84.64
2022-12-11T04:19:30.124Z,84.55
2022-12-11T04:20:30.134Z,84.41
2022-12-11T04:21:32.854Z,84.20
2022-12-11T04:22:30.108Z,84.23
2022-12-11T04:23:30.098Z,84.37
2022-12-11T04:24:30.057Z,84.54
2022-12-11T04:25:30.108Z,84.65
2022-12-11T04:26:30.069Z,84.73
2022-12-11T04:27:30.041Z,84.72
2022-12-11T04:28:30.018Z,84.60
2022-12-11T04:29:30.021Z,84.59
2022-12-11T04:30:34.130Z,84.54
2022-12-11T04:31:30.141Z,84.37
2022-12-11T04:32:29.998Z,84.35
2022-12-11T04:33:30.008Z,84.29
2022-12-11T04:34:29.984Z,84.35
2022-12-11T04:35:29.980Z,84.35
2022-12-11T04:36:29.984Z,84.38
2022-12-11T04:37:29.941Z,84.48
2022-12-11T04:38:29.943Z,84.44
2022-12-11T04:39:29.940Z,84.53
2022-12-11T04:40:29.917Z,84.57
2022-12-11T04:41:29.935Z,84.66
2022-12-11T04:42:30.012Z,84.71
2022-12-11T04:43:29.892Z,84.80
2022-12-11T04:44:29.885Z,84.87
2022-12-11T04:45:29.893Z,84.73
2022-12-11T04:46:29.922Z,84.73
2022-12-11T04:47:29.873Z,84.90
2022-12-11T04:48:29.867Z,84.97
2022-12-11T04:49:29.858Z,84.93
2022-12-11T04:50:29.821Z,85.00
2022-12-11T04:51:29.826Z,85.11
2022-12-11T04:52:28.801Z,85.06
2022-12-11T04:53:29.798Z,85.02
2022-12-11T04:54:29.786Z,85.00
2022-12-11T04:55:29.795Z,85.10
2022-12-11T04:56:29.784Z,85.17
2022-12-11T04:57:29.766Z,85.25
2022-12-11T04:58:29.764Z,85.47
2022-12-11T04:59:29.753Z,85.53
2022-12-11T05:00:29.761Z,85.53
2022-12-11T05:01:29.879Z,85.52
2022-12-11T05:02:29.793Z,85.49
2022-12-11T05:03:29.718Z,85.60
2022-12-11T05:04:29.699Z,85.71
2022-12-11T05:05:29.677Z,85.67
2022-12-11T05:06:29.689Z,85.70
2022-12-11T05:07:29.681Z,85.72
2022-12-11T05:08:29.680Z,85.78
2022-12-11T05:09:29.639Z,85.86
2022-12-11T05:10:29.646Z,85.99
2022-12-11T05:11:29.660Z,85.98
2022-12-11T05:12:29.640Z,86.02
2022-12-11T05:13:29.671Z,86.03
2022-12-11T05:14:29.596Z,86.15
2022-12-11T05:15:29.616Z,86.22
2022-12-11T05:16:29.642Z,86.33
2022-12-11T05:17:29.595Z,86.42
2022-12-11T05:18:29.563Z,86.49
2022-12-11T05:19:29.553Z,86.58
2022-12-11T05:20:29.553Z,86.77
2022-12-11T05:21:34.818Z,86.84
2022-12-11T05:22:29.535Z,86.88
2022-12-11T05:23:29.508Z,86.94
2022-12-11T05:24:29.534Z,87.00
2022-12-11T05:25:29.509Z,87.04
2022-12-11T05:26:29.491Z,87.09
2022-12-11T05:27:29.472Z,87.12
2022-12-11T05:28:29.480Z,87.15
2022-12-11T05:29:29.496Z,87.18
2022-12-11T05:30:29.496Z,87.21
2022-12-11T05:31:29.559Z,87.24
2022-12-11T05:32:29.440Z,87.24
2022-12-11T05:33:29.463Z,87.25
2022-12-11T05:34:29.418Z,87.21
2022-12-11T05:35:29.420Z,87.13
2022-12-11T05:36:29.410Z,87.15
2022-12-11T05:37:29.395Z,87.08
2022-12-11T05:38:29.439Z,87.01
2022-12-11T05:39:29.379Z,87.01
2022-12-11T05:40:29.401Z,87.01
2022-12-11T05:41:29.355Z,87.03
2022-12-11T05:42:29.398Z,87.02
2022-12-11T05:43:29.371Z,87.01
2022-12-11T05:44:29.329Z,87.05
2022-12-11T05:45:29.317Z,87.08
2022-12-11T05:46:29.355Z,87.14
2022-12-11T05:47:29.311Z,87.22
2022-12-11T05:48:29.293Z,87.17
2022-12-11T05:49:31.181Z,87.13
2022-12-11T05:50:29.269Z,87.06
2022-12-11T05:51:29.273Z,86.97
2022-12-11T05:52:29.249Z,86.91
2022-12-11T05:53:29.247Z,86.82
2022-12-11T05:54:29.268Z,86.68
2022-12-11T05:55:29.214Z,86.58
2022-12-11T05:56:29.212Z,86.49
2022-12-11T05:57:29.211Z,86.40
2022-12-11T05:58:29.225Z,86.36
2022-12-11T05:59:29.209Z,86.22
2022-12-11T06:00:34.382Z,86.07
2022-12-11T06:01:29.178Z,85.97
2022-12-11T06:02:29.274Z,85.92
2022-12-11T06:03:29.187Z,85.84
2022-12-11T06:04:29.160Z,85.76
2022-12-11T06:05:29.245Z,85.74
2022-12-11T06:06:29.136Z,85.56
2022-12-11T06:07:29.101Z,85.47
2022-12-11T06:08:29.118Z,85.37
2022-12-11T06:09:29.099Z,85.26
2022-12-11T06:10:29.108Z,85.11
2022-12-11T06:11:29.069Z,85.05
2022-12-11T06:12:29.060Z,84.80
2022-12-11T06:13:29.113Z,84.72
2022-12-11T06:14:29.046Z,84.53
2022-12-11T06:15:29.054Z,84.46
2022-12-11T06:16:29.119Z,84.30
2022-12-11T06:17:29.042Z,84.34
2022-12-11T06:18:29.005Z,84.22
2022-12-11T06:19:34.995Z,84.21
2022-12-11T06:20:29.053Z,84.16
2022-12-11T06:21:28.985Z,84.04
2022-12-11T06:22:28.980Z,84.15
2022-12-11T06:23:28.971Z,84.14
2022-12-11T06:24:28.949Z,84.02
2022-12-11T06:25:28.899Z,83.92
2022-12-11T06:26:28.944Z,83.89
2022-12-11T06:27:28.949Z,84.09
2022-12-11T06:28:28.932Z,84.19
2022-12-11T06:29:28.866Z,84.19
2022-12-11T06:30:39.054Z,84.20
2022-12-11T06:31:28.915Z,84.26
2022-12-11T06:32:28.895Z,84.33
2022-12-11T06:33:28.813Z,84.25
2022-12-11T06:34:28.806Z,84.25
2022-12-11T06:35:28.847Z,84.25
2022-12-11T06:36:28.787Z,84.33
2022-12-11T06:37:28.781Z,84.28
2022-12-11T06:38:28.766Z,84.24
2022-12-11T06:39:28.786Z,84.21
2022-12-11T06:40:28.760Z,84.18
2022-12-11T06:41:28.752Z,84.21
2022-12-11T06:42:28.766Z,84.28
2022-12-11T06:43:28.721Z,84.35
2022-12-11T06:44:28.718Z,84.33
2022-12-11T06:45:28.776Z,84.29
2022-12-11T06:46:28.818Z,84.30
2022-12-11T06:47:28.714Z,84.35
2022-12-11T06:48:28.680Z,84.34
2022-12-11T06:49:28.689Z,84.41
2022-12-11T06:50:28.661Z,84.46
2022-12-11T06:51:28.665Z,84.41
2022-12-11T06:52:28.676Z,84.42
2022-12-11T06:53:28.625Z,84.41
2022-12-11T06:54:28.622Z,84.38
2022-12-11T06:55:28.635Z,84.38
2022-12-11T06:56:28.612Z,84.48
2022-12-11T06:57:28.613Z,84.51
2022-12-11T06:58:28.594Z,84.61
2022-12-11T06:59:28.606Z,84.66
2022-12-11T07:00:28.584Z,84.65
2022-12-11T07:01:28.650Z,84.78
2022-12-11T07:02:28.640Z,85.05
2022-12-11T07:03:28.548Z,85.33
2022-12-11T07:04:28.535Z,85.30
2022-12-11T07:05:28.553Z,85.27
2022-12-11T07:06:28.536Z,85.24
2022-12-11T07:07:28.527Z,85.15
2022-12-11T07:08:28.490Z,85.13
2022-12-11T07:09:28.486Z,85.23
2022-12-11T07:10:28.493Z,85.34
2022-12-11T07:11:28.485Z,85.43
2022-12-11T07:12:28.457Z,85.53
2022-12-11T07:13:28.463Z,85.71
2022-12-11T07:14:28.459Z,85.90
2022-12-11T07:15:28.424Z,86.00
2022-12-11T07:16:28.474Z,86.05
2022-12-11T07:17:28.417Z,86.07
2022-12-11T07:18:28.415Z,86.20
2022-12-11T07:19:28.427Z,86.24
2022-12-11T07:20:28.459Z,86.23
2022-12-11T07:21:28.429Z,86.23
2022-12-11T07:22:28.375Z,86.22
2022-12-11T07:23:28.357Z,86.21
2022-12-11T07:24:28.363Z,86.21
2022-12-11T07:25:28.336Z,86.21
2022-12-11T07:26:28.382Z,86.22
2022-12-11T07:27:28.320Z,86.09
2022-12-11T07:28:28.313Z,85.96
2022-12-11T07:29:28.321Z,85.88
2022-12-11T07:30:28.993Z,85.71
2022-12-11T07:31:28.322Z,85.53
2022-12-11T07:32:28.448Z,85.42
2022-12-11T07:33:28.314Z,85.26
2022-12-11T07:34:28.283Z,85.06
2022-12-11T07:35:28.286Z,84.90
2022-12-11T07:36:28.269Z,84.85
2022-12-11T07:37:28.225Z,84.84
2022-12-11T07:38:28.247Z,84.88
2022-12-11T07:39:28.327Z,85.09
2022-12-11T07:40:28.224Z,85.12
2022-12-11T07:41:28.243Z,85.51
2022-12-11T07:42:28.191Z,85.48
2022-12-11T07:43:28.227Z,85.41
2022-12-11T07:44:28.161Z,85.48
2022-12-11T07:45:28.280Z,85.70
2022-12-11T07:46:28.164Z,85.65
2022-12-11T07:47:28.178Z,85.72
2022-12-11T07:48:28.141Z,85.82
2022-12-11T07:49:28.124Z,85.86
2022-12-11T07:50:28.116Z,85.77
2022-12-11T07:51:28.274Z,85.79
2022-12-11T07:52:28.123Z,85.80
2022-12-11T07:53:28.168Z,85.93
2022-12-11T07:54:28.074Z,85.99
2022-12-11T07:55:28.081Z,86.05
2022-12-11T07:56:28.064Z,85.98
2022-12-11T07:57:28.052Z,85.82
2022-12-11T07:58:28.053Z,85.68
2022-12-11T07:59:28.033Z,85.55
2022-12-11T08:00:28.065Z,85.47
2022-12-11T08:01:28.095Z,85.32
2022-12-11T08:02:31.340Z,85.23
2022-12-11T08:03:27.993Z,85.28
2022-12-11T08:04:27.989Z,85.24
2022-12-11T08:05:27.975Z,85.22
2022-12-11T08:06:28.040Z,85.20
2022-12-11T08:07:27.991Z,85.20
2022-12-11T08:08:27.973Z,85.21
2022-12-11T08:09:28.031Z,85.08
2022-12-11T08:10:27.921Z,84.96
2022-12-11T08:11:27.914Z,84.86
2022-12-11T08:12:28.099Z,84.76
2022-12-11T08:13:27.995Z,84.68
2022-12-11T08:14:27.933Z,84.54
2022-12-11T08:15:27.930Z,84.60
2022-12-11T08:16:27.934Z,84.46
2022-12-11T08:17:30.956Z,84.47
2022-12-11T08:18:27.861Z,84.47
2022-12-11T08:19:27.884Z,84.47
2022-12-11T08:20:27.834Z,84.41
2022-12-11T08:21:27.825Z,84.34
2022-12-11T08:22:27.867Z,84.23
2022-12-11T08:23:27.803Z,84.16
2022-12-11T08:24:27.801Z,84.10
2022-12-11T08:25:27.854Z,84.04
2022-12-11T08:26:27.776Z,84.04
2022-12-11T08:27:27.775Z,84.08
2022-12-11T08:28:27.798Z,84.05
2022-12-11T08:29:27.748Z,84.17
2022-12-11T08:30:27.796Z,83.98
2022-12-11T08:31:27.777Z,83.84
2022-12-11T08:32:27.721Z,83.83
2022-12-11T08:33:27.717Z,83.83
2022-12-11T08:34:27.773Z,83.79
2022-12-11T08:35:27.693Z,83.82
2022-12-11T08:36:27.713Z,83.88
2022-12-11T08:37:27.671Z,83.86
2022-12-11T08:38:27.685Z,83.92
2022-12-11T08:39:27.668Z,83.84
2022-12-11T08:40:27.648Z,83.72
2022-12-11T08:41:27.744Z,83.61
2022-12-11T08:42:27.630Z,83.62
2022-12-11T08:43:27.638Z,83.56
2022-12-11T08:44:27.661Z,83.50
2022-12-11T08:45:27.598Z,83.50
2022-12-11T08:46:27.643Z,83.48
2022-12-11T08:47:27.773Z,83.55
2022-12-11T08:48:27.572Z,83.54
2022-12-11T08:49:32.693Z,83.45
2022-12-11T08:50:27.562Z,83.41
2022-12-11T08:51:27.560Z,83.34
2022-12-11T08:52:27.551Z,83.30
2022-12-11T08:53:27.553Z,83.29
2022-12-11T08:54:27.520Z,83.27
2022-12-11T08:55:27.551Z,83.27
2022-12-11T08:56:27.532Z,83.11
2022-12-11T08:57:27.491Z,83.08
2022-12-11T08:58:27.481Z,83.06
2022-12-11T08:59:27.506Z,83.06
2022-12-11T09:00:27.462Z,82.94
2022-12-11T09:01:27.541Z,82.84
2022-12-11T09:02:27.614Z,82.72
2022-12-11T09:03:27.452Z,82.59
2022-12-11T09:04:27.442Z,82.42
2022-12-11T09:05:27.439Z,82.34
2022-12-11T09:06:27.436Z,82.25
2022-12-11T09:07:27.405Z,82.23
2022-12-11T09:08:27.483Z,82.06
2022-12-11T09:09:27.383Z,81.97
2022-12-11T09:10:27.421Z,81.88
2022-12-11T09:11:27.392Z,81.76
2022-12-11T09:12:27.346Z,81.52
2022-12-11T09:13:27.345Z,81.23
2022-12-11T09:14:27.385Z,80.89
2022-12-11T09:15:27.337Z,80.64
2022-12-11T09:16:27.315Z,80.40
2022-12-11T09:17:27.328Z,80.47
2022-12-11T09:18:27.294Z,80.47
2022-12-11T09:19:32.068Z,80.26
2022-12-11T09:20:27.310Z,80.20
2022-12-11T09:21:27.274Z,80.18
2022-12-11T09:22:27.258Z,80.05
2022-12-11T09:23:27.255Z,79.49
2022-12-11T09:24:27.269Z,79.24
2022-12-11T09:25:27.233Z,79.39
2022-12-11T09:26:27.244Z,79.35
2022-12-11T09:27:27.249Z,79.34
2022-12-11T09:28:27.202Z,79.39
2022-12-11T09:29:27.202Z,79.54
2022-12-11T09:30:27.195Z,79.53
2022-12-11T09:31:27.176Z,79.62
2022-12-11T09:32:27.194Z,79.32
2022-12-11T09:33:27.170Z,79.45
2022-12-11T09:34:29.402Z,79.29
2022-12-11T09:35:27.161Z,79.28
2022-12-11T09:36:27.133Z,79.07
2022-12-11T09:37:27.140Z,78.84
2022-12-11T09:38:27.108Z,78.28
2022-12-11T09:39:27.141Z,78.19
2022-12-11T09:40:27.087Z,78.41
2022-12-11T09:41:27.100Z,78.79
2022-12-11T09:42:27.167Z,78.87
2022-12-11T09:43:27.068Z,79.26
2022-12-11T09:44:27.082Z,79.46
2022-12-11T09:45:27.049Z,79.38
2022-12-11T09:46:32.136Z,79.44
2022-12-11T09:47:27.073Z,79.67
2022-12-11T09:48:27.066Z,79.88
2022-12-11T09:49:27.053Z,80.03
2022-12-11T09:50:27.001Z,79.96
2022-12-11T09:51:27.031Z,79.91
2022-12-11T09:52:27.014Z,79.81
2022-12-11T09:53:29.750Z,79.63
2022-12-11T09:54:26.994Z,79.24
2022-12-11T09:55:26.963Z,78.82
2022-12-11T09:56:26.940Z,78.42
2022-12-11T09:57:26.951Z,78.17
2022-12-11T09:58:26.945Z,77.93
2022-12-11T09:59:26.938Z,78.01
2022-12-11T10:00:26.903Z,78.04
2022-12-11T10:01:26.978Z,77.61
2022-12-11T10:02:27.020Z,77.60
2022-12-11T10:03:26.882Z,77.28
2022-12-11T10:04:26.877Z,76.93
2022-12-11T10:05:26.877Z,76.96
2022-12-11T10:06:26.848Z,76.97
2022-12-11T10:07:26.870Z,76.88
2022-12-11T10:08:26.941Z,76.78
2022-12-11T10:09:26.816Z,76.71
2022-12-11T10:10:26.836Z,76.63
2022-12-11T10:11:26.816Z,76.19
2022-12-11T10:12:26.834Z,75.69
2022-12-11T10:13:26.819Z,75.08
2022-12-11T10:14:26.869Z,75.34
2022-12-11T10:15:26.807Z,75.39
2022-12-11T10:16:26.793Z,75.31
2022-12-11T10:17:26.755Z,75.66
2022-12-11T10:18:26.729Z,75.64
2022-12-11T10:19:26.813Z,76.03
2022-12-11T10:20:26.779Z,76.50
2022-12-11T10:21:26.726Z,76.26
2022-12-11T10:22:26.756Z,75.89
2022-12-11T10:23:26.705Z,75.80
2022-12-11T10:24:57.855Z,75.74
2022-12-11T10:25:27.011Z,75.87
2022-12-11T10:26:26.748Z,75.70
2022-12-11T10:27:26.666Z,75.56
2022-12-11T10:28:26.658Z,75.35
2022-12-11T10:29:26.628Z,75.17
2022-12-11T10:30:30.403Z,75.14
2022-12-11T10:31:26.657Z,75.50
2022-12-11T10:32:26.617Z,75.33
2022-12-11T10:33:26.614Z,75.04
2022-12-11T10:34:26.578Z,74.78
2022-12-11T10:35:26.568Z,74.61
2022-12-11T10:36:26.550Z,74.27
2022-12-11T10:37:26.554Z,74.24
2022-12-11T10:38:26.585Z,74.43
2022-12-11T10:39:26.525Z,74.65
2022-12-11T10:40:26.510Z,75.03
2022-12-11T10:41:26.516Z,74.69
2022-12-11T10:42:26.596Z,74.59
2022-12-11T10:43:26.494Z,74.89
2022-12-11T10:44:26.490Z,74.47
2022-12-11T10:45:26.501Z,74.35
2022-12-11T10:46:26.501Z,74.60
2022-12-11T10:47:26.459Z,74.78
2022-12-11T10:48:26.465Z,75.24
2022-12-11T10:49:26.492Z,74.92
2022-12-11T10:50:26.415Z,75.14
2022-12-11T10:51:26.419Z,75.49
2022-12-11T10:52:26.488Z,75.81
2022-12-11T10:53:26.410Z,76.31
2022-12-11T10:54:26.373Z,76.81
2022-12-11T10:55:26.376Z,76.81
2022-12-11T10:56:26.372Z,76.10
2022-12-11T10:57:26.357Z,75.41
2022-12-11T10:58:26.360Z,75.15
2022-12-11T10:59:26.355Z,74.94
2022-12-11T11:00:26.330Z,75.04
2022-12-11T11:01:26.334Z,75.06
2022-12-11T11:02:26.418Z,74.45
2022-12-11T11:03:26.293Z,74.59
2022-12-11T11:04:26.333Z,74.80
2022-12-11T11:05:26.271Z,75.08
2022-12-11T11:06:26.273Z,74.74
2022-12-11T11:07:26.319Z,74.61
2022-12-11T11:08:26.364Z,75.11
2022-12-11T11:09:26.307Z,75.52
2022-12-11T11:10:26.299Z,75.32
2022-12-11T11:11:26.211Z,74.93
2022-12-11T11:12:26.277Z,74.61
2022-12-11T11:13:26.247Z,75.02
2022-12-11T11:14:26.189Z,75.11
2022-12-11T11:15:26.196Z,75.67
2022-12-11T11:16:26.301Z,76.41
2022-12-11T11:17:29.592Z,76.92
2022-12-11T11:18:26.146Z,76.62
2022-12-11T11:19:26.208Z,76.45
2022-12-11T11:20:26.125Z,76.76
2022-12-11T11:21:26.133Z,76.60
2022-12-11T11:22:26.126Z,75.84
2022-12-11T11:23:26.095Z,75.65
2022-12-11T11:24:26.085Z,75.40
2022-12-11T11:25:26.124Z,75.13
2022-12-11T11:26:43.497Z,74.89
2022-12-11T11:27:26.068Z,74.55
2022-12-11T11:28:26.080Z,75.01
2022-12-11T11:29:26.035Z,75.40
2022-12-11T11:30:26.058Z,75.31
2022-12-11T11:31:26.128Z,74.72
2022-12-11T11:32:26.015Z,74.67
2022-12-11T11:33:26.029Z,74.68
2022-12-11T11:34:25.980Z,74.75
2022-12-11T11:35:26.011Z,74.37
2022-12-11T11:36:25.963Z,74.34
2022-12-11T11:37:25.957Z,74.16
2022-12-11T11:38:25.949Z,74.58
2022-12-11T11:39:25.977Z,74.00
2022-12-11T11:40:25.923Z,74.21
2022-12-11T11:41:25.915Z,74.75
2022-12-11T11:42:26.028Z,75.36
2022-12-11T11:43:25.895Z,75.13
2022-12-11T11:44:25.940Z,74.29
2022-12-11T11:45:25.942Z,74.25
2022-12-11T11:46:25.894Z,74.50
2022-12-11T11:47:25.865Z,74.73
2022-12-11T11:48:25.861Z,75.00
2022-12-11T11:49:25.882Z,74.82
2022-12-11T11:50:25.824Z,73.95
2022-12-11T11:51:25.849Z,73.87
2022-12-11T11:52:25.813Z,73.29
2022-12-11T11:53:25.803Z,72.77
2022-12-11T11:54:25.795Z,72.08
2022-12-11T11:55:25.807Z,72.60
2022-12-11T11:56:25.803Z,72.33
2022-12-11T11:57:25.814Z,72.22
2022-12-11T11:58:25.744Z,73.23
2022-12-11T11:59:25.741Z,73.95
2022-12-11T12:00:30.372Z,72.70
2022-12-11T12:01:25.771Z,72.41
2022-12-11T12:02:25.732Z,71.00
2022-12-11T12:03:25.743Z,70.28
2022-12-11T12:04:25.696Z,72.32
2022-12-11T12:05:25.700Z,73.27
2022-12-11T12:06:25.710Z,73.99
2022-12-11T12:07:25.693Z,73.97
2022-12-11T12:08:25.785Z,73.64
2022-12-11T12:09:25.739Z,73.32
2022-12-11T12:10:25.644Z,70.61
2022-12-11T12:11:25.661Z,70.75
2022-12-11T12:12:29.749Z,69.95
2022-12-11T12:13:48.669Z,69.93
2022-12-11T12:15:24.599Z,68.53
2022-12-11T12:16:51.558Z,68.34
2022-12-11T12:17:25.639Z,68.66
2022-12-11T12:18:25.602Z,68.03
2022-12-11T12:19:25.555Z,68.51
2022-12-11T12:20:25.529Z,68.62
2022-12-11T12:21:25.537Z,68.56
2022-12-11T12:22:25.572Z,68.74
2022-12-11T12:23:25.506Z,69.16
2022-12-11T12:24:25.488Z,69.36
2022-12-11T12:25:25.512Z,69.72
2022-12-11T12:26:25.514Z,69.36
2022-12-11T12:28:24.443Z,70.94
2022-12-11T12:29:25.443Z,71.74
2022-12-11T12:30:25.467Z,71.16
2022-12-11T12:31:25.471Z,70.80
2022-12-11T12:32:25.412Z,71.03
2022-12-11T12:33:25.444Z,71.39
2022-12-11T12:34:25.454Z,71.88
2022-12-11T12:35:25.435Z,71.93
2022-12-11T12:36:26.395Z,72.25
2022-12-11T12:37:25.398Z,72.84
2022-12-11T12:38:25.421Z,73.30
2022-12-11T12:39:25.387Z,73.45
2022-12-11T12:40:25.380Z,73.69
2022-12-11T12:41:25.437Z,73.87
2022-12-11T12:42:25.319Z,74.20
2022-12-11T12:43:25.317Z,73.66
2022-12-11T12:44:25.384Z,74.41
2022-12-11T12:45:25.332Z,75.16
2022-12-11T12:46:25.279Z,74.90
2022-12-11T12:47:25.280Z,75.16
2022-12-11T12:48:25.281Z,75.30
2022-12-11T12:49:25.266Z,75.74
2022-12-11T12:50:25.232Z,76.57
2022-12-11T12:51:25.228Z,75.90
2022-12-11T12:52:25.249Z,75.44
2022-12-11T12:53:25.242Z,75.91
2022-12-11T12:54:25.221Z,75.14
2022-12-11T12:55:25.195Z,74.08